<?xml version="1.0" encoding="UTF-8" standalone="no" ?>
<gpx xmlns="http://www.topografix.com/GPX/1/1" xmlns:xsi="http://www.w3.org/2001/XMLSchema-instance" xsi:schemaLocation="http://www.topografix.com/GPX/1/1 http://www.topografix.com/GPX/1/1/gpx.xsd" version="1.1" creator="VisuGPX - https://www.visugpx.com">
  <metadata>
    <name>LA Chapelle Montreuil Vaumiont LA Chapelle</name>
    <desc><![CDATA[LA Chapelle Montreuil Vaumiont LA Chapelle]]></desc>
  </metadata>
  <trk>
    <name><![CDATA[OR-6913560--Chapelle-en-Vexin (La):LA Chapelle Montreuil Vaumiont LA Chapelle]]></name>
    <trkseg>
      <trkpt lat="49.18501" lon="1.73008">
        <ele>128</ele>
        <time>2017-01-05T18:55:08Z</time>
      </trkpt>
      <trkpt lat="49.18491" lon="1.73031">
        <ele>130</ele>
        <time>2017-01-05T18:57:08Z</time>
      </trkpt>
      <trkpt lat="49.18443" lon="1.73146">
        <ele>137</ele>
        <time>2017-01-05T18:59:08Z</time>
      </trkpt>
      <trkpt lat="49.18443" lon="1.73146">
        <ele>137</ele>
        <time>2017-01-05T19:01:08Z</time>
      </trkpt>
      <trkpt lat="49.18442" lon="1.73141">
        <ele>137</ele>
        <time>2017-01-05T19:03:08Z</time>
      </trkpt>
      <trkpt lat="49.18441" lon="1.73138">
        <ele>137</ele>
        <time>2017-01-05T19:05:08Z</time>
      </trkpt>
      <trkpt lat="49.18441" lon="1.73134">
        <ele>137</ele>
        <time>2017-01-05T19:07:08Z</time>
      </trkpt>
      <trkpt lat="49.18442" lon="1.7313">
        <ele>137</ele>
        <time>2017-01-05T19:09:08Z</time>
      </trkpt>
      <trkpt lat="49.18444" lon="1.73124">
        <ele>137</ele>
        <time>2017-01-05T19:11:08Z</time>
      </trkpt>
      <trkpt lat="49.18448" lon="1.73107">
        <ele>137</ele>
        <time>2017-01-05T19:13:08Z</time>
      </trkpt>
      <trkpt lat="49.18453" lon="1.73074">
        <ele>136</ele>
        <time>2017-01-05T19:15:08Z</time>
      </trkpt>
      <trkpt lat="49.18457" lon="1.73044">
        <ele>134</ele>
        <time>2017-01-05T19:17:08Z</time>
      </trkpt>
      <trkpt lat="49.18457" lon="1.73037">
        <ele>134</ele>
        <time>2017-01-05T19:19:08Z</time>
      </trkpt>
      <trkpt lat="49.18455" lon="1.73029">
        <ele>134</ele>
        <time>2017-01-05T19:21:08Z</time>
      </trkpt>
      <trkpt lat="49.18453" lon="1.73024">
        <ele>134</ele>
        <time>2017-01-05T19:23:08Z</time>
      </trkpt>
      <trkpt lat="49.18403" lon="1.72976">
        <ele>134</ele>
        <time>2017-01-05T19:25:08Z</time>
      </trkpt>
      <trkpt lat="49.18393" lon="1.72967">
        <ele>134</ele>
        <time>2017-01-05T19:27:08Z</time>
      </trkpt>
      <trkpt lat="49.18384" lon="1.72963">
        <ele>133</ele>
        <time>2017-01-05T19:29:08Z</time>
      </trkpt>
      <trkpt lat="49.18374" lon="1.72959">
        <ele>133</ele>
        <time>2017-01-05T19:31:08Z</time>
      </trkpt>
      <trkpt lat="49.18371" lon="1.72958">
        <ele>133</ele>
        <time>2017-01-05T19:33:08Z</time>
      </trkpt>
      <trkpt lat="49.18368" lon="1.72959">
        <ele>133</ele>
        <time>2017-01-05T19:35:08Z</time>
      </trkpt>
      <trkpt lat="49.18358" lon="1.72967">
        <ele>134</ele>
        <time>2017-01-05T19:37:08Z</time>
      </trkpt>
      <trkpt lat="49.18358" lon="1.72967">
        <ele>134</ele>
        <time>2017-01-05T19:39:08Z</time>
      </trkpt>
      <trkpt lat="49.18361" lon="1.72977">
        <ele>135</ele>
        <time>2017-01-05T19:41:08Z</time>
      </trkpt>
      <trkpt lat="49.18363" lon="1.72986">
        <ele>136</ele>
        <time>2017-01-05T19:43:08Z</time>
      </trkpt>
      <trkpt lat="49.18362" lon="1.72998">
        <ele>137</ele>
        <time>2017-01-05T19:45:08Z</time>
      </trkpt>
      <trkpt lat="49.1836" lon="1.73009">
        <ele>138</ele>
        <time>2017-01-05T19:47:08Z</time>
      </trkpt>
      <trkpt lat="49.18352" lon="1.73031">
        <ele>139</ele>
        <time>2017-01-05T19:49:08Z</time>
      </trkpt>
      <trkpt lat="49.18351" lon="1.73036">
        <ele>139</ele>
        <time>2017-01-05T19:51:08Z</time>
      </trkpt>
      <trkpt lat="49.18349" lon="1.73042">
        <ele>140</ele>
        <time>2017-01-05T19:53:08Z</time>
      </trkpt>
      <trkpt lat="49.18342" lon="1.73066">
        <ele>141</ele>
        <time>2017-01-05T19:55:08Z</time>
      </trkpt>
      <trkpt lat="49.18338" lon="1.73079">
        <ele>142</ele>
        <time>2017-01-05T19:57:08Z</time>
      </trkpt>
      <trkpt lat="49.18332" lon="1.73108">
        <ele>143</ele>
        <time>2017-01-05T19:59:08Z</time>
      </trkpt>
      <trkpt lat="49.18324" lon="1.73145">
        <ele>144</ele>
        <time>2017-01-05T20:01:08Z</time>
      </trkpt>
      <trkpt lat="49.18319" lon="1.73176">
        <ele>145</ele>
        <time>2017-01-05T20:03:08Z</time>
      </trkpt>
      <trkpt lat="49.18319" lon="1.73176">
        <ele>145</ele>
        <time>2017-01-05T20:05:08Z</time>
      </trkpt>
      <trkpt lat="49.1831" lon="1.73175">
        <ele>146</ele>
        <time>2017-01-05T20:07:08Z</time>
      </trkpt>
      <trkpt lat="49.18293" lon="1.73172">
        <ele>146</ele>
        <time>2017-01-05T20:09:08Z</time>
      </trkpt>
      <trkpt lat="49.18275" lon="1.73166">
        <ele>146</ele>
        <time>2017-01-05T20:11:08Z</time>
      </trkpt>
      <trkpt lat="49.18246" lon="1.73154">
        <ele>147</ele>
        <time>2017-01-05T20:13:08Z</time>
      </trkpt>
      <trkpt lat="49.18223" lon="1.7314">
        <ele>147</ele>
        <time>2017-01-05T20:15:08Z</time>
      </trkpt>
      <trkpt lat="49.18223" lon="1.7314">
        <ele>147</ele>
        <time>2017-01-05T20:17:08Z</time>
      </trkpt>
      <trkpt lat="49.18204" lon="1.73131">
        <ele>148</ele>
        <time>2017-01-05T20:19:08Z</time>
      </trkpt>
      <trkpt lat="49.18161" lon="1.731">
        <ele>149</ele>
        <time>2017-01-05T20:21:08Z</time>
      </trkpt>
      <trkpt lat="49.18135" lon="1.73076">
        <ele>148</ele>
        <time>2017-01-05T20:23:08Z</time>
      </trkpt>
      <trkpt lat="49.18112" lon="1.73057">
        <ele>148</ele>
        <time>2017-01-05T20:25:08Z</time>
      </trkpt>
      <trkpt lat="49.1806" lon="1.73006">
        <ele>147</ele>
        <time>2017-01-05T20:27:08Z</time>
      </trkpt>
      <trkpt lat="49.18033" lon="1.7297">
        <ele>146</ele>
        <time>2017-01-05T20:29:08Z</time>
      </trkpt>
      <trkpt lat="49.18014" lon="1.72944">
        <ele>146</ele>
        <time>2017-01-05T20:31:08Z</time>
      </trkpt>
      <trkpt lat="49.17978" lon="1.72892">
        <ele>146</ele>
        <time>2017-01-05T20:33:08Z</time>
      </trkpt>
      <trkpt lat="49.17973" lon="1.72885">
        <ele>146</ele>
        <time>2017-01-05T20:35:08Z</time>
      </trkpt>
      <trkpt lat="49.17957" lon="1.72857">
        <ele>146</ele>
        <time>2017-01-05T20:37:08Z</time>
      </trkpt>
      <trkpt lat="49.17942" lon="1.72827">
        <ele>146</ele>
        <time>2017-01-05T20:39:08Z</time>
      </trkpt>
      <trkpt lat="49.17932" lon="1.72808">
        <ele>146</ele>
        <time>2017-01-05T20:41:08Z</time>
      </trkpt>
      <trkpt lat="49.17921" lon="1.7278">
        <ele>145</ele>
        <time>2017-01-05T20:43:08Z</time>
      </trkpt>
      <trkpt lat="49.17913" lon="1.72759">
        <ele>145</ele>
        <time>2017-01-05T20:45:08Z</time>
      </trkpt>
      <trkpt lat="49.17886" lon="1.7268">
        <ele>142</ele>
        <time>2017-01-05T20:47:08Z</time>
      </trkpt>
      <trkpt lat="49.1788" lon="1.7266">
        <ele>141</ele>
        <time>2017-01-05T20:49:08Z</time>
      </trkpt>
      <trkpt lat="49.17876" lon="1.72649">
        <ele>141</ele>
        <time>2017-01-05T20:51:08Z</time>
      </trkpt>
      <trkpt lat="49.17864" lon="1.72624">
        <ele>140</ele>
        <time>2017-01-05T20:53:08Z</time>
      </trkpt>
      <trkpt lat="49.17854" lon="1.72607">
        <ele>140</ele>
        <time>2017-01-05T20:55:08Z</time>
      </trkpt>
      <trkpt lat="49.17826" lon="1.72573">
        <ele>139</ele>
        <time>2017-01-05T20:57:08Z</time>
      </trkpt>
      <trkpt lat="49.17813" lon="1.72555">
        <ele>137</ele>
        <time>2017-01-05T20:59:08Z</time>
      </trkpt>
      <trkpt lat="49.17804" lon="1.72541">
        <ele>136</ele>
        <time>2017-01-05T21:01:08Z</time>
      </trkpt>
      <trkpt lat="49.17784" lon="1.7251">
        <ele>133</ele>
        <time>2017-01-05T21:03:08Z</time>
      </trkpt>
      <trkpt lat="49.17768" lon="1.72485">
        <ele>130</ele>
        <time>2017-01-05T21:05:08Z</time>
      </trkpt>
      <trkpt lat="49.17764" lon="1.72479">
        <ele>130</ele>
        <time>2017-01-05T21:07:08Z</time>
      </trkpt>
      <trkpt lat="49.17747" lon="1.72451">
        <ele>128</ele>
        <time>2017-01-05T21:09:08Z</time>
      </trkpt>
      <trkpt lat="49.17747" lon="1.72451">
        <ele>128</ele>
        <time>2017-01-05T21:11:08Z</time>
      </trkpt>
      <trkpt lat="49.17768" lon="1.72402">
        <ele>124</ele>
        <time>2017-01-05T21:13:08Z</time>
      </trkpt>
      <trkpt lat="49.17776" lon="1.72385">
        <ele>123</ele>
        <time>2017-01-05T21:15:08Z</time>
      </trkpt>
      <trkpt lat="49.17814" lon="1.72307">
        <ele>120</ele>
        <time>2017-01-05T21:17:08Z</time>
      </trkpt>
      <trkpt lat="49.17843" lon="1.72245">
        <ele>118</ele>
        <time>2017-01-05T21:19:08Z</time>
      </trkpt>
      <trkpt lat="49.17901" lon="1.72117">
        <ele>116</ele>
        <time>2017-01-05T21:21:08Z</time>
      </trkpt>
      <trkpt lat="49.17983" lon="1.71936">
        <ele>118</ele>
        <time>2017-01-05T21:23:08Z</time>
      </trkpt>
      <trkpt lat="49.18024" lon="1.7185">
        <ele>116</ele>
        <time>2017-01-05T21:25:08Z</time>
      </trkpt>
      <trkpt lat="49.18069" lon="1.71755">
        <ele>115</ele>
        <time>2017-01-05T21:27:08Z</time>
      </trkpt>
      <trkpt lat="49.18212" lon="1.71457">
        <ele>113</ele>
        <time>2017-01-05T21:29:08Z</time>
      </trkpt>
      <trkpt lat="49.18212" lon="1.71457">
        <ele>113</ele>
        <time>2017-01-05T21:31:08Z</time>
      </trkpt>
      <trkpt lat="49.18101" lon="1.71032">
        <ele>130</ele>
        <time>2017-01-05T21:33:08Z</time>
      </trkpt>
      <trkpt lat="49.181" lon="1.71025">
        <ele>131</ele>
        <time>2017-01-05T21:35:08Z</time>
      </trkpt>
      <trkpt lat="49.18096" lon="1.71002">
        <ele>133</ele>
        <time>2017-01-05T21:37:08Z</time>
      </trkpt>
      <trkpt lat="49.18095" lon="1.70989">
        <ele>135</ele>
        <time>2017-01-05T21:39:08Z</time>
      </trkpt>
      <trkpt lat="49.18096" lon="1.70987">
        <ele>135</ele>
        <time>2017-01-05T21:41:08Z</time>
      </trkpt>
      <trkpt lat="49.18096" lon="1.70987">
        <ele>135</ele>
        <time>2017-01-05T21:43:08Z</time>
      </trkpt>
      <trkpt lat="49.18098" lon="1.7097">
        <ele>136</ele>
        <time>2017-01-05T21:45:08Z</time>
      </trkpt>
      <trkpt lat="49.18103" lon="1.70957">
        <ele>137</ele>
        <time>2017-01-05T21:47:08Z</time>
      </trkpt>
      <trkpt lat="49.18115" lon="1.70937">
        <ele>137</ele>
        <time>2017-01-05T21:49:08Z</time>
      </trkpt>
      <trkpt lat="49.18133" lon="1.70914">
        <ele>137</ele>
        <time>2017-01-05T21:51:08Z</time>
      </trkpt>
      <trkpt lat="49.18146" lon="1.709">
        <ele>137</ele>
        <time>2017-01-05T21:53:08Z</time>
      </trkpt>
      <trkpt lat="49.18155" lon="1.70884">
        <ele>138</ele>
        <time>2017-01-05T21:55:08Z</time>
      </trkpt>
      <trkpt lat="49.18157" lon="1.70876">
        <ele>138</ele>
        <time>2017-01-05T21:57:08Z</time>
      </trkpt>
      <trkpt lat="49.18159" lon="1.70868">
        <ele>139</ele>
        <time>2017-01-05T21:59:08Z</time>
      </trkpt>
      <trkpt lat="49.18162" lon="1.70848">
        <ele>141</ele>
        <time>2017-01-05T22:01:08Z</time>
      </trkpt>
      <trkpt lat="49.18162" lon="1.70836">
        <ele>143</ele>
        <time>2017-01-05T22:03:08Z</time>
      </trkpt>
      <trkpt lat="49.18162" lon="1.7083">
        <ele>143</ele>
        <time>2017-01-05T22:05:08Z</time>
      </trkpt>
      <trkpt lat="49.1816" lon="1.70815">
        <ele>144</ele>
        <time>2017-01-05T22:07:08Z</time>
      </trkpt>
      <trkpt lat="49.18149" lon="1.7079">
        <ele>146</ele>
        <time>2017-01-05T22:09:08Z</time>
      </trkpt>
      <trkpt lat="49.18138" lon="1.70773">
        <ele>147</ele>
        <time>2017-01-05T22:11:08Z</time>
      </trkpt>
      <trkpt lat="49.18045" lon="1.7068">
        <ele>147</ele>
        <time>2017-01-05T22:13:08Z</time>
      </trkpt>
      <trkpt lat="49.17947" lon="1.70614">
        <ele>143</ele>
        <time>2017-01-05T22:15:08Z</time>
      </trkpt>
      <trkpt lat="49.17871" lon="1.70566">
        <ele>140</ele>
        <time>2017-01-05T22:17:08Z</time>
      </trkpt>
      <trkpt lat="49.17856" lon="1.70553">
        <ele>138</ele>
        <time>2017-01-05T22:19:08Z</time>
      </trkpt>
      <trkpt lat="49.17845" lon="1.70541">
        <ele>137</ele>
        <time>2017-01-05T22:21:08Z</time>
      </trkpt>
      <trkpt lat="49.17845" lon="1.7054">
        <ele>137</ele>
        <time>2017-01-05T22:23:08Z</time>
      </trkpt>
      <trkpt lat="49.17839" lon="1.70533">
        <ele>137</ele>
        <time>2017-01-05T22:25:08Z</time>
      </trkpt>
      <trkpt lat="49.17817" lon="1.70498">
        <ele>135</ele>
        <time>2017-01-05T22:27:08Z</time>
      </trkpt>
      <trkpt lat="49.17796" lon="1.70454">
        <ele>135</ele>
        <time>2017-01-05T22:29:08Z</time>
      </trkpt>
      <trkpt lat="49.17786" lon="1.70435">
        <ele>134</ele>
        <time>2017-01-05T22:31:08Z</time>
      </trkpt>
      <trkpt lat="49.17777" lon="1.70406">
        <ele>133</ele>
        <time>2017-01-05T22:33:08Z</time>
      </trkpt>
      <trkpt lat="49.17776" lon="1.70389">
        <ele>133</ele>
        <time>2017-01-05T22:35:08Z</time>
      </trkpt>
      <trkpt lat="49.17777" lon="1.70369">
        <ele>132</ele>
        <time>2017-01-05T22:37:08Z</time>
      </trkpt>
      <trkpt lat="49.17777" lon="1.70261">
        <ele>130</ele>
        <time>2017-01-05T22:39:08Z</time>
      </trkpt>
      <trkpt lat="49.17778" lon="1.70245">
        <ele>129</ele>
        <time>2017-01-05T22:41:08Z</time>
      </trkpt>
      <trkpt lat="49.17781" lon="1.69897">
        <ele>119</ele>
        <time>2017-01-05T22:43:08Z</time>
      </trkpt>
      <trkpt lat="49.17783" lon="1.69852">
        <ele>118</ele>
        <time>2017-01-05T22:45:08Z</time>
      </trkpt>
      <trkpt lat="49.17786" lon="1.69801">
        <ele>116</ele>
        <time>2017-01-05T22:47:08Z</time>
      </trkpt>
      <trkpt lat="49.17793" lon="1.69726">
        <ele>114</ele>
        <time>2017-01-05T22:49:08Z</time>
      </trkpt>
      <trkpt lat="49.17797" lon="1.69657">
        <ele>113</ele>
        <time>2017-01-05T22:51:08Z</time>
      </trkpt>
      <trkpt lat="49.17798" lon="1.69642">
        <ele>113</ele>
        <time>2017-01-05T22:53:08Z</time>
      </trkpt>
      <trkpt lat="49.17798" lon="1.69627">
        <ele>112</ele>
        <time>2017-01-05T22:55:08Z</time>
      </trkpt>
      <trkpt lat="49.17791" lon="1.69542">
        <ele>110</ele>
        <time>2017-01-05T22:57:08Z</time>
      </trkpt>
      <trkpt lat="49.17786" lon="1.69484">
        <ele>107</ele>
        <time>2017-01-05T22:59:08Z</time>
      </trkpt>
      <trkpt lat="49.17779" lon="1.69422">
        <ele>104</ele>
        <time>2017-01-05T23:01:08Z</time>
      </trkpt>
      <trkpt lat="49.17771" lon="1.69362">
        <ele>100</ele>
        <time>2017-01-05T23:03:08Z</time>
      </trkpt>
      <trkpt lat="49.17765" lon="1.69333">
        <ele>99</ele>
        <time>2017-01-05T23:05:08Z</time>
      </trkpt>
      <trkpt lat="49.17741" lon="1.69251">
        <ele>94</ele>
        <time>2017-01-05T23:07:08Z</time>
      </trkpt>
      <trkpt lat="49.17719" lon="1.69165">
        <ele>90</ele>
        <time>2017-01-05T23:09:08Z</time>
      </trkpt>
      <trkpt lat="49.17701" lon="1.6911">
        <ele>88</ele>
        <time>2017-01-05T23:11:08Z</time>
      </trkpt>
      <trkpt lat="49.17683" lon="1.69052">
        <ele>85</ele>
        <time>2017-01-05T23:13:08Z</time>
      </trkpt>
      <trkpt lat="49.17683" lon="1.69052">
        <ele>85</ele>
        <time>2017-01-05T23:15:08Z</time>
      </trkpt>
      <trkpt lat="49.17666" lon="1.69053">
        <ele>84</ele>
        <time>2017-01-05T23:17:08Z</time>
      </trkpt>
      <trkpt lat="49.17627" lon="1.69046">
        <ele>88</ele>
        <time>2017-01-05T23:19:08Z</time>
      </trkpt>
      <trkpt lat="49.17598" lon="1.69042">
        <ele>91</ele>
        <time>2017-01-05T23:21:08Z</time>
      </trkpt>
      <trkpt lat="49.17592" lon="1.69042">
        <ele>91</ele>
        <time>2017-01-05T23:23:08Z</time>
      </trkpt>
      <trkpt lat="49.17537" lon="1.6904">
        <ele>97</ele>
        <time>2017-01-05T23:25:08Z</time>
      </trkpt>
      <trkpt lat="49.17517" lon="1.69042">
        <ele>99</ele>
        <time>2017-01-05T23:27:08Z</time>
      </trkpt>
      <trkpt lat="49.17494" lon="1.69043">
        <ele>102</ele>
        <time>2017-01-05T23:29:08Z</time>
      </trkpt>
      <trkpt lat="49.17428" lon="1.69056">
        <ele>108</ele>
        <time>2017-01-05T23:31:08Z</time>
      </trkpt>
      <trkpt lat="49.17421" lon="1.6905">
        <ele>109</ele>
        <time>2017-01-05T23:33:08Z</time>
      </trkpt>
      <trkpt lat="49.1741" lon="1.69034">
        <ele>109</ele>
        <time>2017-01-05T23:35:08Z</time>
      </trkpt>
      <trkpt lat="49.17405" lon="1.69027">
        <ele>110</ele>
        <time>2017-01-05T23:37:08Z</time>
      </trkpt>
      <trkpt lat="49.17402" lon="1.69024">
        <ele>110</ele>
        <time>2017-01-05T23:39:08Z</time>
      </trkpt>
      <trkpt lat="49.17392" lon="1.69015">
        <ele>111</ele>
        <time>2017-01-05T23:41:08Z</time>
      </trkpt>
      <trkpt lat="49.17377" lon="1.69002">
        <ele>112</ele>
        <time>2017-01-05T23:43:08Z</time>
      </trkpt>
      <trkpt lat="49.17313" lon="1.68947">
        <ele>116</ele>
        <time>2017-01-05T23:45:08Z</time>
      </trkpt>
      <trkpt lat="49.1723" lon="1.68872">
        <ele>121</ele>
        <time>2017-01-05T23:47:08Z</time>
      </trkpt>
      <trkpt lat="49.17141" lon="1.68794">
        <ele>124</ele>
        <time>2017-01-05T23:49:08Z</time>
      </trkpt>
      <trkpt lat="49.17141" lon="1.68794">
        <ele>124</ele>
        <time>2017-01-05T23:51:08Z</time>
      </trkpt>
      <trkpt lat="49.17164" lon="1.68755">
        <ele>124</ele>
        <time>2017-01-05T23:53:08Z</time>
      </trkpt>
      <trkpt lat="49.17164" lon="1.68755">
        <ele>124</ele>
        <time>2017-01-05T23:55:08Z</time>
      </trkpt>
      <trkpt lat="49.17143" lon="1.6877">
        <ele>124</ele>
        <time>2017-01-05T23:57:08Z</time>
      </trkpt>
      <trkpt lat="49.17123" lon="1.68784">
        <ele>125</ele>
        <time>2017-01-05T23:59:08Z</time>
      </trkpt>
      <trkpt lat="49.17118" lon="1.68785">
        <ele>125</ele>
        <time>2017-01-06T00:01:08Z</time>
      </trkpt>
      <trkpt lat="49.1711" lon="1.68787">
        <ele>125</ele>
        <time>2017-01-06T00:03:08Z</time>
      </trkpt>
      <trkpt lat="49.17096" lon="1.68785">
        <ele>126</ele>
        <time>2017-01-06T00:05:08Z</time>
      </trkpt>
      <trkpt lat="49.17024" lon="1.68772">
        <ele>128</ele>
        <time>2017-01-06T00:07:08Z</time>
      </trkpt>
      <trkpt lat="49.1699" lon="1.6877">
        <ele>130</ele>
        <time>2017-01-06T00:09:08Z</time>
      </trkpt>
      <trkpt lat="49.16973" lon="1.68772">
        <ele>130</ele>
        <time>2017-01-06T00:11:08Z</time>
      </trkpt>
      <trkpt lat="49.16944" lon="1.68774">
        <ele>131</ele>
        <time>2017-01-06T00:13:08Z</time>
      </trkpt>
      <trkpt lat="49.16939" lon="1.68774">
        <ele>131</ele>
        <time>2017-01-06T00:15:08Z</time>
      </trkpt>
      <trkpt lat="49.16895" lon="1.68782">
        <ele>131</ele>
        <time>2017-01-06T00:17:08Z</time>
      </trkpt>
      <trkpt lat="49.16884" lon="1.68783">
        <ele>130</ele>
        <time>2017-01-06T00:19:08Z</time>
      </trkpt>
      <trkpt lat="49.16842" lon="1.68788">
        <ele>128</ele>
        <time>2017-01-06T00:21:08Z</time>
      </trkpt>
      <trkpt lat="49.16825" lon="1.68792">
        <ele>128</ele>
        <time>2017-01-06T00:23:08Z</time>
      </trkpt>
      <trkpt lat="49.1681" lon="1.68795">
        <ele>128</ele>
        <time>2017-01-06T00:25:08Z</time>
      </trkpt>
      <trkpt lat="49.16794" lon="1.68798">
        <ele>128</ele>
        <time>2017-01-06T00:27:08Z</time>
      </trkpt>
      <trkpt lat="49.16768" lon="1.68803">
        <ele>128</ele>
        <time>2017-01-06T00:29:08Z</time>
      </trkpt>
      <trkpt lat="49.16728" lon="1.68811">
        <ele>127</ele>
        <time>2017-01-06T00:31:08Z</time>
      </trkpt>
      <trkpt lat="49.16721" lon="1.68813">
        <ele>127</ele>
        <time>2017-01-06T00:33:08Z</time>
      </trkpt>
      <trkpt lat="49.16694" lon="1.68824">
        <ele>125</ele>
        <time>2017-01-06T00:35:08Z</time>
      </trkpt>
      <trkpt lat="49.16688" lon="1.68828">
        <ele>125</ele>
        <time>2017-01-06T00:37:08Z</time>
      </trkpt>
      <trkpt lat="49.16688" lon="1.68828">
        <ele>125</ele>
        <time>2017-01-06T00:39:08Z</time>
      </trkpt>
      <trkpt lat="49.16678" lon="1.68795">
        <ele>125</ele>
        <time>2017-01-06T00:41:08Z</time>
      </trkpt>
      <trkpt lat="49.16676" lon="1.68787">
        <ele>125</ele>
        <time>2017-01-06T00:43:08Z</time>
      </trkpt>
      <trkpt lat="49.16673" lon="1.68766">
        <ele>124</ele>
        <time>2017-01-06T00:45:08Z</time>
      </trkpt>
      <trkpt lat="49.16668" lon="1.6871">
        <ele>123</ele>
        <time>2017-01-06T00:47:08Z</time>
      </trkpt>
      <trkpt lat="49.16666" lon="1.68691">
        <ele>122</ele>
        <time>2017-01-06T00:49:08Z</time>
      </trkpt>
      <trkpt lat="49.16663" lon="1.68651">
        <ele>120</ele>
        <time>2017-01-06T00:51:08Z</time>
      </trkpt>
      <trkpt lat="49.16663" lon="1.68651">
        <ele>120</ele>
        <time>2017-01-06T00:53:08Z</time>
      </trkpt>
      <trkpt lat="49.16659" lon="1.68657">
        <ele>120</ele>
        <time>2017-01-06T00:55:08Z</time>
      </trkpt>
      <trkpt lat="49.16655" lon="1.68662">
        <ele>121</ele>
        <time>2017-01-06T00:57:08Z</time>
      </trkpt>
      <trkpt lat="49.16646" lon="1.68666">
        <ele>121</ele>
        <time>2017-01-06T00:59:08Z</time>
      </trkpt>
      <trkpt lat="49.16643" lon="1.68666">
        <ele>121</ele>
        <time>2017-01-06T01:01:08Z</time>
      </trkpt>
      <trkpt lat="49.1662" lon="1.68664">
        <ele>120</ele>
        <time>2017-01-06T01:03:08Z</time>
      </trkpt>
      <trkpt lat="49.16592" lon="1.6866">
        <ele>120</ele>
        <time>2017-01-06T01:05:08Z</time>
      </trkpt>
      <trkpt lat="49.16567" lon="1.68647">
        <ele>119</ele>
        <time>2017-01-06T01:07:08Z</time>
      </trkpt>
      <trkpt lat="49.16548" lon="1.6864">
        <ele>120</ele>
        <time>2017-01-06T01:09:08Z</time>
      </trkpt>
      <trkpt lat="49.16515" lon="1.68615">
        <ele>120</ele>
        <time>2017-01-06T01:11:08Z</time>
      </trkpt>
      <trkpt lat="49.16483" lon="1.68598">
        <ele>120</ele>
        <time>2017-01-06T01:13:08Z</time>
      </trkpt>
      <trkpt lat="49.16448" lon="1.68574">
        <ele>120</ele>
        <time>2017-01-06T01:15:08Z</time>
      </trkpt>
      <trkpt lat="49.1642" lon="1.68554">
        <ele>120</ele>
        <time>2017-01-06T01:17:08Z</time>
      </trkpt>
      <trkpt lat="49.1642" lon="1.68554">
        <ele>120</ele>
        <time>2017-01-06T01:19:08Z</time>
      </trkpt>
      <trkpt lat="49.16448" lon="1.68574">
        <ele>120</ele>
        <time>2017-01-06T01:21:08Z</time>
      </trkpt>
      <trkpt lat="49.16483" lon="1.68598">
        <ele>120</ele>
        <time>2017-01-06T01:23:08Z</time>
      </trkpt>
      <trkpt lat="49.16515" lon="1.68615">
        <ele>120</ele>
        <time>2017-01-06T01:25:08Z</time>
      </trkpt>
      <trkpt lat="49.16548" lon="1.6864">
        <ele>120</ele>
        <time>2017-01-06T01:27:08Z</time>
      </trkpt>
      <trkpt lat="49.16567" lon="1.68647">
        <ele>119</ele>
        <time>2017-01-06T01:29:08Z</time>
      </trkpt>
      <trkpt lat="49.16592" lon="1.6866">
        <ele>120</ele>
        <time>2017-01-06T01:31:08Z</time>
      </trkpt>
      <trkpt lat="49.1662" lon="1.68664">
        <ele>120</ele>
        <time>2017-01-06T01:33:08Z</time>
      </trkpt>
      <trkpt lat="49.16643" lon="1.68666">
        <ele>121</ele>
        <time>2017-01-06T01:35:08Z</time>
      </trkpt>
      <trkpt lat="49.16646" lon="1.68666">
        <ele>121</ele>
        <time>2017-01-06T01:37:08Z</time>
      </trkpt>
      <trkpt lat="49.16655" lon="1.68662">
        <ele>121</ele>
        <time>2017-01-06T01:39:08Z</time>
      </trkpt>
      <trkpt lat="49.16659" lon="1.68657">
        <ele>120</ele>
        <time>2017-01-06T01:41:08Z</time>
      </trkpt>
      <trkpt lat="49.16663" lon="1.68651">
        <ele>120</ele>
        <time>2017-01-06T01:43:08Z</time>
      </trkpt>
      <trkpt lat="49.16663" lon="1.68651">
        <ele>120</ele>
        <time>2017-01-06T01:45:08Z</time>
      </trkpt>
      <trkpt lat="49.16666" lon="1.68691">
        <ele>122</ele>
        <time>2017-01-06T01:47:08Z</time>
      </trkpt>
      <trkpt lat="49.16668" lon="1.6871">
        <ele>123</ele>
        <time>2017-01-06T01:49:08Z</time>
      </trkpt>
      <trkpt lat="49.16673" lon="1.68766">
        <ele>124</ele>
        <time>2017-01-06T01:51:08Z</time>
      </trkpt>
      <trkpt lat="49.16676" lon="1.68787">
        <ele>125</ele>
        <time>2017-01-06T01:53:08Z</time>
      </trkpt>
      <trkpt lat="49.16678" lon="1.68795">
        <ele>125</ele>
        <time>2017-01-06T01:55:08Z</time>
      </trkpt>
      <trkpt lat="49.16688" lon="1.68828">
        <ele>125</ele>
        <time>2017-01-06T01:57:08Z</time>
      </trkpt>
      <trkpt lat="49.16705" lon="1.68892">
        <ele>125</ele>
        <time>2017-01-06T01:59:08Z</time>
      </trkpt>
      <trkpt lat="49.16707" lon="1.689">
        <ele>125</ele>
        <time>2017-01-06T02:01:08Z</time>
      </trkpt>
      <trkpt lat="49.16707" lon="1.689">
        <ele>125</ele>
        <time>2017-01-06T02:03:08Z</time>
      </trkpt>
      <trkpt lat="49.16704" lon="1.68905">
        <ele>125</ele>
        <time>2017-01-06T02:05:08Z</time>
      </trkpt>
      <trkpt lat="49.16702" lon="1.68911">
        <ele>125</ele>
        <time>2017-01-06T02:07:08Z</time>
      </trkpt>
      <trkpt lat="49.16696" lon="1.68918">
        <ele>125</ele>
        <time>2017-01-06T02:09:08Z</time>
      </trkpt>
      <trkpt lat="49.16687" lon="1.68927">
        <ele>125</ele>
        <time>2017-01-06T02:11:08Z</time>
      </trkpt>
      <trkpt lat="49.16646" lon="1.68963">
        <ele>125</ele>
        <time>2017-01-06T02:13:08Z</time>
      </trkpt>
      <trkpt lat="49.16621" lon="1.68996">
        <ele>125</ele>
        <time>2017-01-06T02:15:08Z</time>
      </trkpt>
      <trkpt lat="49.16587" lon="1.69051">
        <ele>126</ele>
        <time>2017-01-06T02:17:08Z</time>
      </trkpt>
      <trkpt lat="49.16548" lon="1.69107">
        <ele>128</ele>
        <time>2017-01-06T02:19:08Z</time>
      </trkpt>
      <trkpt lat="49.16525" lon="1.69145">
        <ele>130</ele>
        <time>2017-01-06T02:21:08Z</time>
      </trkpt>
      <trkpt lat="49.16513" lon="1.6917">
        <ele>131</ele>
        <time>2017-01-06T02:23:08Z</time>
      </trkpt>
      <trkpt lat="49.16497" lon="1.69209">
        <ele>131</ele>
        <time>2017-01-06T02:25:08Z</time>
      </trkpt>
      <trkpt lat="49.1648" lon="1.69243">
        <ele>131</ele>
        <time>2017-01-06T02:27:08Z</time>
      </trkpt>
      <trkpt lat="49.16454" lon="1.69278">
        <ele>131</ele>
        <time>2017-01-06T02:29:08Z</time>
      </trkpt>
      <trkpt lat="49.16387" lon="1.69348">
        <ele>132</ele>
        <time>2017-01-06T02:31:08Z</time>
      </trkpt>
      <trkpt lat="49.16371" lon="1.69365">
        <ele>132</ele>
        <time>2017-01-06T02:33:08Z</time>
      </trkpt>
      <trkpt lat="49.16365" lon="1.69371">
        <ele>132</ele>
        <time>2017-01-06T02:35:08Z</time>
      </trkpt>
      <trkpt lat="49.16341" lon="1.694">
        <ele>133</ele>
        <time>2017-01-06T02:37:08Z</time>
      </trkpt>
      <trkpt lat="49.16315" lon="1.69427">
        <ele>133</ele>
        <time>2017-01-06T02:39:08Z</time>
      </trkpt>
      <trkpt lat="49.16283" lon="1.69457">
        <ele>133</ele>
        <time>2017-01-06T02:41:08Z</time>
      </trkpt>
      <trkpt lat="49.16159" lon="1.69544">
        <ele>131</ele>
        <time>2017-01-06T02:43:08Z</time>
      </trkpt>
      <trkpt lat="49.16118" lon="1.69574">
        <ele>129</ele>
        <time>2017-01-06T02:45:08Z</time>
      </trkpt>
      <trkpt lat="49.16049" lon="1.69623">
        <ele>127</ele>
        <time>2017-01-06T02:47:08Z</time>
      </trkpt>
      <trkpt lat="49.16049" lon="1.69623">
        <ele>127</ele>
        <time>2017-01-06T02:49:08Z</time>
      </trkpt>
      <trkpt lat="49.16075" lon="1.697">
        <ele>130</ele>
        <time>2017-01-06T02:51:08Z</time>
      </trkpt>
      <trkpt lat="49.16075" lon="1.697">
        <ele>130</ele>
        <time>2017-01-06T02:53:08Z</time>
      </trkpt>
      <trkpt lat="49.15974" lon="1.69773">
        <ele>130</ele>
        <time>2017-01-06T02:55:08Z</time>
      </trkpt>
      <trkpt lat="49.15919" lon="1.6981">
        <ele>129</ele>
        <time>2017-01-06T02:57:08Z</time>
      </trkpt>
      <trkpt lat="49.15888" lon="1.69826">
        <ele>127</ele>
        <time>2017-01-06T02:59:08Z</time>
      </trkpt>
      <trkpt lat="49.15886" lon="1.69826">
        <ele>127</ele>
        <time>2017-01-06T03:01:08Z</time>
      </trkpt>
      <trkpt lat="49.15882" lon="1.69907">
        <ele>126</ele>
        <time>2017-01-06T03:03:08Z</time>
      </trkpt>
      <trkpt lat="49.15882" lon="1.6991">
        <ele>126</ele>
        <time>2017-01-06T03:05:08Z</time>
      </trkpt>
      <trkpt lat="49.1587" lon="1.70024">
        <ele>121</ele>
        <time>2017-01-06T03:07:08Z</time>
      </trkpt>
      <trkpt lat="49.15863" lon="1.70099">
        <ele>119</ele>
        <time>2017-01-06T03:09:08Z</time>
      </trkpt>
      <trkpt lat="49.15863" lon="1.70099">
        <ele>119</ele>
        <time>2017-01-06T03:11:08Z</time>
      </trkpt>
      <trkpt lat="49.15838" lon="1.70116">
        <ele>116</ele>
        <time>2017-01-06T03:13:08Z</time>
      </trkpt>
      <trkpt lat="49.15823" lon="1.70121">
        <ele>114</ele>
        <time>2017-01-06T03:15:08Z</time>
      </trkpt>
      <trkpt lat="49.15794" lon="1.70119">
        <ele>112</ele>
        <time>2017-01-06T03:17:08Z</time>
      </trkpt>
      <trkpt lat="49.15785" lon="1.70116">
        <ele>111</ele>
        <time>2017-01-06T03:19:08Z</time>
      </trkpt>
      <trkpt lat="49.15771" lon="1.70112">
        <ele>110</ele>
        <time>2017-01-06T03:21:08Z</time>
      </trkpt>
      <trkpt lat="49.1576" lon="1.7011">
        <ele>109</ele>
        <time>2017-01-06T03:23:08Z</time>
      </trkpt>
      <trkpt lat="49.15758" lon="1.7011">
        <ele>109</ele>
        <time>2017-01-06T03:25:08Z</time>
      </trkpt>
      <trkpt lat="49.15749" lon="1.7011">
        <ele>108</ele>
        <time>2017-01-06T03:27:08Z</time>
      </trkpt>
      <trkpt lat="49.15739" lon="1.70112">
        <ele>107</ele>
        <time>2017-01-06T03:29:08Z</time>
      </trkpt>
      <trkpt lat="49.15726" lon="1.70116">
        <ele>106</ele>
        <time>2017-01-06T03:31:08Z</time>
      </trkpt>
      <trkpt lat="49.15709" lon="1.7012">
        <ele>104</ele>
        <time>2017-01-06T03:33:08Z</time>
      </trkpt>
      <trkpt lat="49.15691" lon="1.70124">
        <ele>103</ele>
        <time>2017-01-06T03:35:08Z</time>
      </trkpt>
      <trkpt lat="49.15669" lon="1.70134">
        <ele>100</ele>
        <time>2017-01-06T03:37:08Z</time>
      </trkpt>
      <trkpt lat="49.15664" lon="1.70137">
        <ele>100</ele>
        <time>2017-01-06T03:39:08Z</time>
      </trkpt>
      <trkpt lat="49.15657" lon="1.70138">
        <ele>99</ele>
        <time>2017-01-06T03:41:08Z</time>
      </trkpt>
      <trkpt lat="49.1565" lon="1.70139">
        <ele>98</ele>
        <time>2017-01-06T03:43:08Z</time>
      </trkpt>
      <trkpt lat="49.15644" lon="1.70144">
        <ele>98</ele>
        <time>2017-01-06T03:45:08Z</time>
      </trkpt>
      <trkpt lat="49.15639" lon="1.70152">
        <ele>97</ele>
        <time>2017-01-06T03:47:08Z</time>
      </trkpt>
      <trkpt lat="49.15634" lon="1.7016">
        <ele>96</ele>
        <time>2017-01-06T03:49:08Z</time>
      </trkpt>
      <trkpt lat="49.15629" lon="1.7017">
        <ele>95</ele>
        <time>2017-01-06T03:51:08Z</time>
      </trkpt>
      <trkpt lat="49.15629" lon="1.7017">
        <ele>95</ele>
        <time>2017-01-06T03:53:08Z</time>
      </trkpt>
      <trkpt lat="49.15633" lon="1.70184">
        <ele>94</ele>
        <time>2017-01-06T03:55:08Z</time>
      </trkpt>
      <trkpt lat="49.15647" lon="1.70207">
        <ele>94</ele>
        <time>2017-01-06T03:57:08Z</time>
      </trkpt>
      <trkpt lat="49.15666" lon="1.70236">
        <ele>92</ele>
        <time>2017-01-06T03:59:08Z</time>
      </trkpt>
      <trkpt lat="49.15671" lon="1.70243">
        <ele>92</ele>
        <time>2017-01-06T04:01:08Z</time>
      </trkpt>
      <trkpt lat="49.15676" lon="1.70249">
        <ele>92</ele>
        <time>2017-01-06T04:03:08Z</time>
      </trkpt>
      <trkpt lat="49.15684" lon="1.70257">
        <ele>92</ele>
        <time>2017-01-06T04:05:08Z</time>
      </trkpt>
      <trkpt lat="49.15695" lon="1.70264">
        <ele>92</ele>
        <time>2017-01-06T04:07:08Z</time>
      </trkpt>
      <trkpt lat="49.15705" lon="1.70269">
        <ele>92</ele>
        <time>2017-01-06T04:09:08Z</time>
      </trkpt>
      <trkpt lat="49.15718" lon="1.70276">
        <ele>92</ele>
        <time>2017-01-06T04:11:08Z</time>
      </trkpt>
      <trkpt lat="49.15727" lon="1.70282">
        <ele>92</ele>
        <time>2017-01-06T04:13:08Z</time>
      </trkpt>
      <trkpt lat="49.15738" lon="1.70295">
        <ele>92</ele>
        <time>2017-01-06T04:15:08Z</time>
      </trkpt>
      <trkpt lat="49.15746" lon="1.70306">
        <ele>91</ele>
        <time>2017-01-06T04:17:08Z</time>
      </trkpt>
      <trkpt lat="49.15762" lon="1.70329">
        <ele>90</ele>
        <time>2017-01-06T04:19:08Z</time>
      </trkpt>
      <trkpt lat="49.15782" lon="1.70357">
        <ele>90</ele>
        <time>2017-01-06T04:21:08Z</time>
      </trkpt>
      <trkpt lat="49.15822" lon="1.70413">
        <ele>89</ele>
        <time>2017-01-06T04:23:08Z</time>
      </trkpt>
      <trkpt lat="49.15831" lon="1.70425">
        <ele>89</ele>
        <time>2017-01-06T04:25:08Z</time>
      </trkpt>
      <trkpt lat="49.15855" lon="1.70457">
        <ele>91</ele>
        <time>2017-01-06T04:27:08Z</time>
      </trkpt>
      <trkpt lat="49.15887" lon="1.70502">
        <ele>91</ele>
        <time>2017-01-06T04:29:08Z</time>
      </trkpt>
      <trkpt lat="49.15907" lon="1.70538">
        <ele>91</ele>
        <time>2017-01-06T04:31:08Z</time>
      </trkpt>
      <trkpt lat="49.15912" lon="1.70551">
        <ele>91</ele>
        <time>2017-01-06T04:33:08Z</time>
      </trkpt>
      <trkpt lat="49.15914" lon="1.70561">
        <ele>91</ele>
        <time>2017-01-06T04:35:08Z</time>
      </trkpt>
      <trkpt lat="49.15914" lon="1.70561">
        <ele>91</ele>
        <time>2017-01-06T04:37:08Z</time>
      </trkpt>
      <trkpt lat="49.1592" lon="1.70564">
        <ele>91</ele>
        <time>2017-01-06T04:39:08Z</time>
      </trkpt>
      <trkpt lat="49.15932" lon="1.70574">
        <ele>92</ele>
        <time>2017-01-06T04:41:08Z</time>
      </trkpt>
      <trkpt lat="49.15954" lon="1.70599">
        <ele>92</ele>
        <time>2017-01-06T04:43:08Z</time>
      </trkpt>
      <trkpt lat="49.16008" lon="1.70652">
        <ele>95</ele>
        <time>2017-01-06T04:45:08Z</time>
      </trkpt>
      <trkpt lat="49.16053" lon="1.70691">
        <ele>97</ele>
        <time>2017-01-06T04:47:08Z</time>
      </trkpt>
      <trkpt lat="49.16066" lon="1.70704">
        <ele>98</ele>
        <time>2017-01-06T04:49:08Z</time>
      </trkpt>
      <trkpt lat="49.16074" lon="1.70712">
        <ele>98</ele>
        <time>2017-01-06T04:51:08Z</time>
      </trkpt>
      <trkpt lat="49.16092" lon="1.70741">
        <ele>98</ele>
        <time>2017-01-06T04:53:08Z</time>
      </trkpt>
      <trkpt lat="49.16104" lon="1.70763">
        <ele>98</ele>
        <time>2017-01-06T04:55:08Z</time>
      </trkpt>
      <trkpt lat="49.16121" lon="1.70802">
        <ele>97</ele>
        <time>2017-01-06T04:57:08Z</time>
      </trkpt>
      <trkpt lat="49.16139" lon="1.70853">
        <ele>96</ele>
        <time>2017-01-06T04:59:08Z</time>
      </trkpt>
      <trkpt lat="49.1615" lon="1.70884">
        <ele>96</ele>
        <time>2017-01-06T05:01:08Z</time>
      </trkpt>
      <trkpt lat="49.1615" lon="1.70884">
        <ele>96</ele>
        <time>2017-01-06T05:03:08Z</time>
      </trkpt>
      <trkpt lat="49.16153" lon="1.7091">
        <ele>95</ele>
        <time>2017-01-06T05:05:08Z</time>
      </trkpt>
      <trkpt lat="49.16153" lon="1.70917">
        <ele>95</ele>
        <time>2017-01-06T05:07:08Z</time>
      </trkpt>
      <trkpt lat="49.16153" lon="1.70927">
        <ele>94</ele>
        <time>2017-01-06T05:09:08Z</time>
      </trkpt>
      <trkpt lat="49.16147" lon="1.7095">
        <ele>93</ele>
        <time>2017-01-06T05:11:08Z</time>
      </trkpt>
      <trkpt lat="49.16146" lon="1.70954">
        <ele>92</ele>
        <time>2017-01-06T05:13:08Z</time>
      </trkpt>
      <trkpt lat="49.16146" lon="1.70958">
        <ele>92</ele>
        <time>2017-01-06T05:15:08Z</time>
      </trkpt>
      <trkpt lat="49.16147" lon="1.70962">
        <ele>92</ele>
        <time>2017-01-06T05:17:08Z</time>
      </trkpt>
      <trkpt lat="49.16148" lon="1.70966">
        <ele>92</ele>
        <time>2017-01-06T05:19:08Z</time>
      </trkpt>
      <trkpt lat="49.1616" lon="1.70981">
        <ele>92</ele>
        <time>2017-01-06T05:21:08Z</time>
      </trkpt>
      <trkpt lat="49.16161" lon="1.70984">
        <ele>92</ele>
        <time>2017-01-06T05:23:08Z</time>
      </trkpt>
      <trkpt lat="49.16161" lon="1.70989">
        <ele>92</ele>
        <time>2017-01-06T05:25:08Z</time>
      </trkpt>
      <trkpt lat="49.16161" lon="1.70989">
        <ele>92</ele>
        <time>2017-01-06T05:27:08Z</time>
      </trkpt>
      <trkpt lat="49.1617" lon="1.7099">
        <ele>93</ele>
        <time>2017-01-06T05:29:08Z</time>
      </trkpt>
      <trkpt lat="49.16187" lon="1.70991">
        <ele>93</ele>
        <time>2017-01-06T05:31:08Z</time>
      </trkpt>
      <trkpt lat="49.16203" lon="1.70992">
        <ele>94</ele>
        <time>2017-01-06T05:33:08Z</time>
      </trkpt>
      <trkpt lat="49.16208" lon="1.70993">
        <ele>94</ele>
        <time>2017-01-06T05:35:08Z</time>
      </trkpt>
      <trkpt lat="49.16213" lon="1.70995">
        <ele>94</ele>
        <time>2017-01-06T05:37:08Z</time>
      </trkpt>
      <trkpt lat="49.16217" lon="1.70998">
        <ele>94</ele>
        <time>2017-01-06T05:39:08Z</time>
      </trkpt>
      <trkpt lat="49.16225" lon="1.71005">
        <ele>94</ele>
        <time>2017-01-06T05:41:08Z</time>
      </trkpt>
      <trkpt lat="49.16229" lon="1.71013">
        <ele>94</ele>
        <time>2017-01-06T05:43:08Z</time>
      </trkpt>
      <trkpt lat="49.16235" lon="1.71024">
        <ele>95</ele>
        <time>2017-01-06T05:45:08Z</time>
      </trkpt>
      <trkpt lat="49.16238" lon="1.71034">
        <ele>95</ele>
        <time>2017-01-06T05:47:08Z</time>
      </trkpt>
      <trkpt lat="49.16241" lon="1.71046">
        <ele>96</ele>
        <time>2017-01-06T05:49:08Z</time>
      </trkpt>
      <trkpt lat="49.16242" lon="1.71065">
        <ele>96</ele>
        <time>2017-01-06T05:51:08Z</time>
      </trkpt>
      <trkpt lat="49.16246" lon="1.71087">
        <ele>97</ele>
        <time>2017-01-06T05:53:08Z</time>
      </trkpt>
      <trkpt lat="49.16246" lon="1.71087">
        <ele>97</ele>
        <time>2017-01-06T05:55:08Z</time>
      </trkpt>
      <trkpt lat="49.16251" lon="1.71091">
        <ele>97</ele>
        <time>2017-01-06T05:57:08Z</time>
      </trkpt>
      <trkpt lat="49.16258" lon="1.7109">
        <ele>98</ele>
        <time>2017-01-06T05:59:08Z</time>
      </trkpt>
      <trkpt lat="49.16285" lon="1.71073">
        <ele>101</ele>
        <time>2017-01-06T06:01:08Z</time>
      </trkpt>
      <trkpt lat="49.16296" lon="1.71066">
        <ele>102</ele>
        <time>2017-01-06T06:03:08Z</time>
      </trkpt>
      <trkpt lat="49.16311" lon="1.71058">
        <ele>103</ele>
        <time>2017-01-06T06:05:08Z</time>
      </trkpt>
      <trkpt lat="49.16317" lon="1.71055">
        <ele>103</ele>
        <time>2017-01-06T06:07:08Z</time>
      </trkpt>
      <trkpt lat="49.16348" lon="1.71043">
        <ele>105</ele>
        <time>2017-01-06T06:09:08Z</time>
      </trkpt>
      <trkpt lat="49.164" lon="1.71028">
        <ele>109</ele>
        <time>2017-01-06T06:11:08Z</time>
      </trkpt>
      <trkpt lat="49.16454" lon="1.71016">
        <ele>111</ele>
        <time>2017-01-06T06:13:08Z</time>
      </trkpt>
      <trkpt lat="49.1649" lon="1.71005">
        <ele>112</ele>
        <time>2017-01-06T06:15:08Z</time>
      </trkpt>
      <trkpt lat="49.1655" lon="1.7099">
        <ele>114</ele>
        <time>2017-01-06T06:17:08Z</time>
      </trkpt>
      <trkpt lat="49.16574" lon="1.70979">
        <ele>114</ele>
        <time>2017-01-06T06:19:08Z</time>
      </trkpt>
      <trkpt lat="49.16621" lon="1.70956">
        <ele>116</ele>
        <time>2017-01-06T06:21:08Z</time>
      </trkpt>
      <trkpt lat="49.16643" lon="1.70949">
        <ele>117</ele>
        <time>2017-01-06T06:23:08Z</time>
      </trkpt>
      <trkpt lat="49.16665" lon="1.70947">
        <ele>118</ele>
        <time>2017-01-06T06:25:08Z</time>
      </trkpt>
      <trkpt lat="49.16683" lon="1.70948">
        <ele>119</ele>
        <time>2017-01-06T06:27:08Z</time>
      </trkpt>
      <trkpt lat="49.16711" lon="1.70953">
        <ele>119</ele>
        <time>2017-01-06T06:29:08Z</time>
      </trkpt>
      <trkpt lat="49.16736" lon="1.70963">
        <ele>120</ele>
        <time>2017-01-06T06:31:08Z</time>
      </trkpt>
      <trkpt lat="49.16744" lon="1.70971">
        <ele>121</ele>
        <time>2017-01-06T06:33:08Z</time>
      </trkpt>
      <trkpt lat="49.16752" lon="1.70982">
        <ele>121</ele>
        <time>2017-01-06T06:35:08Z</time>
      </trkpt>
      <trkpt lat="49.16778" lon="1.71018">
        <ele>123</ele>
        <time>2017-01-06T06:37:08Z</time>
      </trkpt>
      <trkpt lat="49.16838" lon="1.71105">
        <ele>126</ele>
        <time>2017-01-06T06:39:08Z</time>
      </trkpt>
      <trkpt lat="49.16876" lon="1.7116">
        <ele>127</ele>
        <time>2017-01-06T06:41:08Z</time>
      </trkpt>
      <trkpt lat="49.16939" lon="1.71248">
        <ele>130</ele>
        <time>2017-01-06T06:43:08Z</time>
      </trkpt>
      <trkpt lat="49.17005" lon="1.71345">
        <ele>134</ele>
        <time>2017-01-06T06:45:08Z</time>
      </trkpt>
      <trkpt lat="49.17008" lon="1.71349">
        <ele>134</ele>
        <time>2017-01-06T06:47:08Z</time>
      </trkpt>
      <trkpt lat="49.17039" lon="1.71381">
        <ele>137</ele>
        <time>2017-01-06T06:49:08Z</time>
      </trkpt>
      <trkpt lat="49.17059" lon="1.71409">
        <ele>139</ele>
        <time>2017-01-06T06:51:08Z</time>
      </trkpt>
      <trkpt lat="49.17072" lon="1.71433">
        <ele>141</ele>
        <time>2017-01-06T06:53:08Z</time>
      </trkpt>
      <trkpt lat="49.17105" lon="1.71486">
        <ele>147</ele>
        <time>2017-01-06T06:55:08Z</time>
      </trkpt>
      <trkpt lat="49.17132" lon="1.71537">
        <ele>151</ele>
        <time>2017-01-06T06:57:08Z</time>
      </trkpt>
      <trkpt lat="49.1715" lon="1.7158">
        <ele>153</ele>
        <time>2017-01-06T06:59:08Z</time>
      </trkpt>
      <trkpt lat="49.17186" lon="1.7164">
        <ele>155</ele>
        <time>2017-01-06T07:01:08Z</time>
      </trkpt>
      <trkpt lat="49.1721" lon="1.71676">
        <ele>156</ele>
        <time>2017-01-06T07:03:08Z</time>
      </trkpt>
      <trkpt lat="49.17215" lon="1.71682">
        <ele>157</ele>
        <time>2017-01-06T07:05:08Z</time>
      </trkpt>
      <trkpt lat="49.17264" lon="1.7172">
        <ele>159</ele>
        <time>2017-01-06T07:07:08Z</time>
      </trkpt>
      <trkpt lat="49.17294" lon="1.7175">
        <ele>160</ele>
        <time>2017-01-06T07:09:08Z</time>
      </trkpt>
      <trkpt lat="49.17294" lon="1.7175">
        <ele>160</ele>
        <time>2017-01-06T07:11:08Z</time>
      </trkpt>
      <trkpt lat="49.17142" lon="1.71949">
        <ele>153</ele>
        <time>2017-01-06T07:13:08Z</time>
      </trkpt>
      <trkpt lat="49.17142" lon="1.71949">
        <ele>153</ele>
        <time>2017-01-06T07:15:08Z</time>
      </trkpt>
      <trkpt lat="49.17294" lon="1.7175">
        <ele>160</ele>
        <time>2017-01-06T07:17:08Z</time>
      </trkpt>
      <trkpt lat="49.17294" lon="1.7175">
        <ele>160</ele>
        <time>2017-01-06T07:19:08Z</time>
      </trkpt>
      <trkpt lat="49.17301" lon="1.71757">
        <ele>160</ele>
        <time>2017-01-06T07:21:08Z</time>
      </trkpt>
      <trkpt lat="49.17315" lon="1.71775">
        <ele>160</ele>
        <time>2017-01-06T07:23:08Z</time>
      </trkpt>
      <trkpt lat="49.17343" lon="1.71811">
        <ele>160</ele>
        <time>2017-01-06T07:25:08Z</time>
      </trkpt>
      <trkpt lat="49.17344" lon="1.71813">
        <ele>160</ele>
        <time>2017-01-06T07:27:08Z</time>
      </trkpt>
      <trkpt lat="49.17354" lon="1.71831">
        <ele>160</ele>
        <time>2017-01-06T07:29:08Z</time>
      </trkpt>
      <trkpt lat="49.17417" lon="1.71914">
        <ele>160</ele>
        <time>2017-01-06T07:31:08Z</time>
      </trkpt>
      <trkpt lat="49.17476" lon="1.71942">
        <ele>157</ele>
        <time>2017-01-06T07:33:08Z</time>
      </trkpt>
      <trkpt lat="49.17522" lon="1.71954">
        <ele>154</ele>
        <time>2017-01-06T07:35:08Z</time>
      </trkpt>
      <trkpt lat="49.17556" lon="1.71955">
        <ele>151</ele>
        <time>2017-01-06T07:37:08Z</time>
      </trkpt>
      <trkpt lat="49.17592" lon="1.71948">
        <ele>148</ele>
        <time>2017-01-06T07:39:08Z</time>
      </trkpt>
      <trkpt lat="49.17606" lon="1.71948">
        <ele>146</ele>
        <time>2017-01-06T07:41:08Z</time>
      </trkpt>
      <trkpt lat="49.17608" lon="1.71948">
        <ele>146</ele>
        <time>2017-01-06T07:43:08Z</time>
      </trkpt>
      <trkpt lat="49.17621" lon="1.71953">
        <ele>145</ele>
        <time>2017-01-06T07:45:08Z</time>
      </trkpt>
      <trkpt lat="49.17626" lon="1.71958">
        <ele>144</ele>
        <time>2017-01-06T07:47:08Z</time>
      </trkpt>
      <trkpt lat="49.17632" lon="1.7197">
        <ele>143</ele>
        <time>2017-01-06T07:49:08Z</time>
      </trkpt>
      <trkpt lat="49.17635" lon="1.71985">
        <ele>142</ele>
        <time>2017-01-06T07:51:08Z</time>
      </trkpt>
      <trkpt lat="49.17633" lon="1.72059">
        <ele>137</ele>
        <time>2017-01-06T07:53:08Z</time>
      </trkpt>
      <trkpt lat="49.17631" lon="1.72092">
        <ele>135</ele>
        <time>2017-01-06T07:55:08Z</time>
      </trkpt>
      <trkpt lat="49.17634" lon="1.72158">
        <ele>129</ele>
        <time>2017-01-06T07:57:08Z</time>
      </trkpt>
      <trkpt lat="49.17637" lon="1.72164">
        <ele>128</ele>
        <time>2017-01-06T07:59:08Z</time>
      </trkpt>
      <trkpt lat="49.17691" lon="1.72306">
        <ele>122</ele>
        <time>2017-01-06T08:01:08Z</time>
      </trkpt>
      <trkpt lat="49.17747" lon="1.72451">
        <ele>128</ele>
        <time>2017-01-06T08:03:08Z</time>
      </trkpt>
      <trkpt lat="49.17747" lon="1.72451">
        <ele>128</ele>
        <time>2017-01-06T08:05:08Z</time>
      </trkpt>
      <trkpt lat="49.17764" lon="1.72479">
        <ele>130</ele>
        <time>2017-01-06T08:07:08Z</time>
      </trkpt>
      <trkpt lat="49.17768" lon="1.72485">
        <ele>130</ele>
        <time>2017-01-06T08:09:08Z</time>
      </trkpt>
      <trkpt lat="49.17784" lon="1.7251">
        <ele>133</ele>
        <time>2017-01-06T08:11:08Z</time>
      </trkpt>
      <trkpt lat="49.17804" lon="1.72541">
        <ele>136</ele>
        <time>2017-01-06T08:13:08Z</time>
      </trkpt>
      <trkpt lat="49.17813" lon="1.72555">
        <ele>137</ele>
        <time>2017-01-06T08:15:08Z</time>
      </trkpt>
      <trkpt lat="49.17826" lon="1.72573">
        <ele>139</ele>
        <time>2017-01-06T08:17:08Z</time>
      </trkpt>
      <trkpt lat="49.17854" lon="1.72607">
        <ele>140</ele>
        <time>2017-01-06T08:19:08Z</time>
      </trkpt>
      <trkpt lat="49.17864" lon="1.72624">
        <ele>140</ele>
        <time>2017-01-06T08:21:08Z</time>
      </trkpt>
      <trkpt lat="49.17876" lon="1.72649">
        <ele>141</ele>
        <time>2017-01-06T08:23:08Z</time>
      </trkpt>
      <trkpt lat="49.1788" lon="1.7266">
        <ele>141</ele>
        <time>2017-01-06T08:25:08Z</time>
      </trkpt>
      <trkpt lat="49.17886" lon="1.7268">
        <ele>142</ele>
        <time>2017-01-06T08:27:08Z</time>
      </trkpt>
      <trkpt lat="49.17913" lon="1.72759">
        <ele>145</ele>
        <time>2017-01-06T08:29:08Z</time>
      </trkpt>
      <trkpt lat="49.17921" lon="1.7278">
        <ele>145</ele>
        <time>2017-01-06T08:31:08Z</time>
      </trkpt>
      <trkpt lat="49.17932" lon="1.72808">
        <ele>146</ele>
        <time>2017-01-06T08:33:08Z</time>
      </trkpt>
      <trkpt lat="49.17942" lon="1.72827">
        <ele>146</ele>
        <time>2017-01-06T08:35:08Z</time>
      </trkpt>
      <trkpt lat="49.17957" lon="1.72857">
        <ele>146</ele>
        <time>2017-01-06T08:37:08Z</time>
      </trkpt>
      <trkpt lat="49.17973" lon="1.72885">
        <ele>146</ele>
        <time>2017-01-06T08:39:08Z</time>
      </trkpt>
      <trkpt lat="49.17978" lon="1.72892">
        <ele>146</ele>
        <time>2017-01-06T08:41:08Z</time>
      </trkpt>
      <trkpt lat="49.18014" lon="1.72944">
        <ele>146</ele>
        <time>2017-01-06T08:43:08Z</time>
      </trkpt>
      <trkpt lat="49.18033" lon="1.7297">
        <ele>146</ele>
        <time>2017-01-06T08:45:08Z</time>
      </trkpt>
      <trkpt lat="49.1806" lon="1.73006">
        <ele>147</ele>
        <time>2017-01-06T08:47:08Z</time>
      </trkpt>
      <trkpt lat="49.18112" lon="1.73057">
        <ele>148</ele>
        <time>2017-01-06T08:49:08Z</time>
      </trkpt>
      <trkpt lat="49.18135" lon="1.73076">
        <ele>148</ele>
        <time>2017-01-06T08:51:08Z</time>
      </trkpt>
      <trkpt lat="49.18161" lon="1.731">
        <ele>149</ele>
        <time>2017-01-06T08:53:08Z</time>
      </trkpt>
      <trkpt lat="49.18204" lon="1.73131">
        <ele>148</ele>
        <time>2017-01-06T08:55:08Z</time>
      </trkpt>
      <trkpt lat="49.18223" lon="1.7314">
        <ele>147</ele>
        <time>2017-01-06T08:57:08Z</time>
      </trkpt>
      <trkpt lat="49.18223" lon="1.7314">
        <ele>147</ele>
        <time>2017-01-06T08:59:08Z</time>
      </trkpt>
      <trkpt lat="49.18246" lon="1.73154">
        <ele>147</ele>
        <time>2017-01-06T09:01:08Z</time>
      </trkpt>
      <trkpt lat="49.18275" lon="1.73166">
        <ele>146</ele>
        <time>2017-01-06T09:03:08Z</time>
      </trkpt>
      <trkpt lat="49.18293" lon="1.73172">
        <ele>146</ele>
        <time>2017-01-06T09:05:08Z</time>
      </trkpt>
      <trkpt lat="49.1831" lon="1.73175">
        <ele>146</ele>
        <time>2017-01-06T09:07:08Z</time>
      </trkpt>
      <trkpt lat="49.18319" lon="1.73176">
        <ele>145</ele>
        <time>2017-01-06T09:09:08Z</time>
      </trkpt>
      <trkpt lat="49.18319" lon="1.73176">
        <ele>145</ele>
        <time>2017-01-06T09:11:08Z</time>
      </trkpt>
      <trkpt lat="49.18324" lon="1.73145">
        <ele>144</ele>
        <time>2017-01-06T09:13:08Z</time>
      </trkpt>
      <trkpt lat="49.18332" lon="1.73108">
        <ele>143</ele>
        <time>2017-01-06T09:15:08Z</time>
      </trkpt>
      <trkpt lat="49.18338" lon="1.73079">
        <ele>142</ele>
        <time>2017-01-06T09:17:08Z</time>
      </trkpt>
      <trkpt lat="49.18342" lon="1.73066">
        <ele>141</ele>
        <time>2017-01-06T09:19:08Z</time>
      </trkpt>
      <trkpt lat="49.18349" lon="1.73042">
        <ele>140</ele>
        <time>2017-01-06T09:21:08Z</time>
      </trkpt>
      <trkpt lat="49.18351" lon="1.73036">
        <ele>139</ele>
        <time>2017-01-06T09:23:08Z</time>
      </trkpt>
      <trkpt lat="49.18351" lon="1.73036">
        <ele>139</ele>
        <time>2017-01-06T09:25:08Z</time>
      </trkpt>
      <trkpt lat="49.18353" lon="1.73038">
        <ele>139</ele>
        <time>2017-01-06T09:27:08Z</time>
      </trkpt>
      <trkpt lat="49.18353" lon="1.73038">
        <ele>139</ele>
        <time>2017-01-06T09:29:08Z</time>
      </trkpt>
      <trkpt lat="49.18351" lon="1.73036">
        <ele>139</ele>
        <time>2017-01-06T09:31:08Z</time>
      </trkpt>
      <trkpt lat="49.18351" lon="1.73036">
        <ele>139</ele>
        <time>2017-01-06T09:33:08Z</time>
      </trkpt>
      <trkpt lat="49.18352" lon="1.73031">
        <ele>139</ele>
        <time>2017-01-06T09:35:08Z</time>
      </trkpt>
      <trkpt lat="49.1836" lon="1.73009">
        <ele>138</ele>
        <time>2017-01-06T09:37:08Z</time>
      </trkpt>
      <trkpt lat="49.18362" lon="1.72998">
        <ele>137</ele>
        <time>2017-01-06T09:39:08Z</time>
      </trkpt>
      <trkpt lat="49.18363" lon="1.72986">
        <ele>136</ele>
        <time>2017-01-06T09:41:08Z</time>
      </trkpt>
      <trkpt lat="49.18361" lon="1.72977">
        <ele>135</ele>
        <time>2017-01-06T09:43:08Z</time>
      </trkpt>
      <trkpt lat="49.18358" lon="1.72967">
        <ele>134</ele>
        <time>2017-01-06T09:45:08Z</time>
      </trkpt>
      <trkpt lat="49.18358" lon="1.72967">
        <ele>134</ele>
        <time>2017-01-06T09:47:08Z</time>
      </trkpt>
      <trkpt lat="49.18368" lon="1.72959">
        <ele>133</ele>
        <time>2017-01-06T09:49:08Z</time>
      </trkpt>
      <trkpt lat="49.18371" lon="1.72958">
        <ele>133</ele>
        <time>2017-01-06T09:51:08Z</time>
      </trkpt>
      <trkpt lat="49.18374" lon="1.72959">
        <ele>133</ele>
        <time>2017-01-06T09:53:08Z</time>
      </trkpt>
      <trkpt lat="49.18384" lon="1.72963">
        <ele>133</ele>
        <time>2017-01-06T09:55:08Z</time>
      </trkpt>
      <trkpt lat="49.18393" lon="1.72967">
        <ele>134</ele>
        <time>2017-01-06T09:57:08Z</time>
      </trkpt>
      <trkpt lat="49.18403" lon="1.72976">
        <ele>134</ele>
        <time>2017-01-06T09:59:08Z</time>
      </trkpt>
      <trkpt lat="49.18453" lon="1.73024">
        <ele>134</ele>
        <time>2017-01-06T10:01:08Z</time>
      </trkpt>
      <trkpt lat="49.18455" lon="1.73029">
        <ele>134</ele>
        <time>2017-01-06T10:03:08Z</time>
      </trkpt>
      <trkpt lat="49.18457" lon="1.73037">
        <ele>134</ele>
        <time>2017-01-06T10:05:08Z</time>
      </trkpt>
      <trkpt lat="49.18457" lon="1.73044">
        <ele>134</ele>
        <time>2017-01-06T10:07:08Z</time>
      </trkpt>
      <trkpt lat="49.18453" lon="1.73074">
        <ele>136</ele>
        <time>2017-01-06T10:09:08Z</time>
      </trkpt>
      <trkpt lat="49.18451" lon="1.73085">
        <ele>136</ele>
        <time>2017-01-06T10:11:08Z</time>
      </trkpt>
    </trkseg>
  </trk>
</gpx>